KINL/INL METAR and TAF weather

Enter ICAO airport designator
Station Type Date Time Source
KINL METAR 2020/01/27 13:55 UTC NOAA

KINL 271355Z AUTO 28004KT 10SM OVC005 M11/M12 A3006 RMK AO2 SNE30 SLP204 P0000 T11061122


Station Type Date Time Source
KINL Decoded METAR 2020/01/27 13:55 UTC NOAA

FALLS INTERNATIONAL AIRPORT , MN, United States (KINL) 48-34N 093-24W 360M
Jan 27, 2020 - 08:55 AM EST / 2020.01.27 1355 UTC
Wind: from the W (280 degrees) at 5 MPH (4 KT):0
Visibility: 10 mile(s):0
Sky conditions: overcast
Precipitation last hour: A trace
Temperature: 12.9 F (-10.6 C)
Windchill: 5 F (-15 C):1
Dew Point: 10.0 F (-12.2 C)
Relative Humidity: 87%
Pressure (altimeter): 30.06 in. Hg (1017 hPa)
ob: KINL 271355Z AUTO 28004KT 10SM OVC005 M11/M12 A3006 RMK AO2 SNE30 SLP204 P0000 T11061122
cycle: 14

Station Type Date Time Source
KINL TAF 2020/01/27 12:24 UTC NOAA

TAF KINL 271122Z 2712/2812 33003KT 6SM -SN BR OVC005
TEMPO 2712/2714 4SM -SN
FM271700 32005KT P6SM OVC010
FM280000 31003KT P6SM OVC010

Example: see airport list